Practice 2 - Red
Course: Road America · 2026-09-05 11:05AM
Weather Conditions
Temp 73°F
(63–73°F range)
Temp type NORMAL
Track DAMP
Precip 0.3 mm (DRIZZLE)
Humidity 88%
Wind 15 km/h
Cloud 100%
OVERALL
BY CLASS
| CLASS | POS | # | NAME | BEST LAP | GAP | INTERVAL | LAPS |
|---|---|---|---|---|---|---|---|
| GTA3 | 1 | 28 | BOB MUELLER | 2:09.005 | - | - | 6 |
| 2 | 014 | CORY FRIEDMAN | 2:10.098 | 1.093 | 1.093 | 8 | |
| 3 | 81 | GEOFF ISRINGHAUSEN | 2:16.779 | 7.774 | 6.681 | 8 | |
| 4 | 559 | MIKE KRESSER | 2:19.055 | 10.050 | 2.276 | 8 | |
| STG | 1 | 267 | MATTHEW SIEGAL | 2:10.975 | - | - | 7 |
| 2 | 270 | GRIFFIN FUJII | 2:12.308 | 1.333 | 1.333 | 8 | |
| 3 | 227 | JOEL JOHNSON | 2:12.925 | 1.950 | 0.617 | 8 | |
| 4 | 212 | RUSSELL FARHANG | 2:13.193 | 2.218 | 0.268 | 8 | |
| 5 | 211 | ERIK BENEDIKT | 2:13.205 | 2.230 | 0.012 | 7 | |
| 6 | 277 | TOM BURKE | 2:14.596 | 3.621 | 1.391 | 8 | |
| 7 | 233 | DARREN FENZ | 2:15.644 | 4.669 | 1.048 | 8 | |
| 8 | 272 | TROY PETERSEN | 2:15.940 | 4.965 | 0.296 | 8 | |
| 9 | 219 | MARK POLING | 2:20.208 | 9.233 | 4.268 | 8 | |
| GTC8 | 1 | 24 | EARL TUCKER IV | 2:11.395 | - | - | 7 |
| 2 | 17 | MARK CALZARETTA | 2:13.538 | 2.143 | 2.143 | 6 | |
| 3 | 262 | JOSEPH G VIOLA | 2:14.230 | 2.835 | 0.692 | 8 | |
| 4 | 844 | GIANLUCA PETTITI | 2:14.355 | 2.960 | 0.125 | 8 | |
| 5 | 112 | KEITH JEZEK | 2:14.790 | 3.395 | 0.435 | 8 | |
| 6 | 38 | TOPHER EVERETT | 2:15.807 | 4.412 | 1.017 | 7 | |
| 7 | 46 | EARL TUCKER III | 2:15.890 | 4.495 | 0.083 | 8 | |
| 8 | 159 | SCOOP HEAVEY | 2:19.335 | 7.940 | 3.445 | 7 | |
| GTA4 | 1 | 57 | JOHN GOETZ | 2:11.963 | - | - | 9 |
| 2 | 91 | RENE ROBICHAUD | 2:12.525 | 0.562 | 0.562 | 8 | |
| 3 | 08 | CLIFF CAYER | 2:15.381 | 3.418 | 2.856 | 8 | |
| 4 | 71 | GREGG ESAKOFF | 2:15.717 | 3.754 | 0.336 | 8 | |
| 5 | 59 | KEVIN O'CONNELL | 2:16.222 | 4.259 | 0.505 | 8 | |
| GTA2 | 1 | 960 | KEVIN ROUSH | 2:14.534 | - | - | 8 |
| GTC7 | 1 | 41 | CORY LIBKA | 2:14.611 | - | - | 5 |
| 2 | 77 | MICHAEL WILLIAMS | 2:17.461 | 2.850 | 2.850 | 8 | |
| STC | 1 | 182 | CONNOR HARE | 2:16.828 | - | - | 7 |
| 2 | 176 | PETER HAABESTAD | 2:18.538 | 1.710 | 1.710 | 7 | |
| 3 | 195 | MICHAEL NANCE | 2:24.058 | 7.230 | 5.520 | 6 | |
| 4 | 121 | DOUG LAWSON | 2:24.412 | 7.584 | 0.354 | 3 | |
| GT1 | 1 | 7 | STEVE PARKER | 2:18.167 | - | - | 8 |
| 2 | 271 | KEITH ERICKSON | 2:51.547 | 33.380 | 33.380 | 3 | |
| GTC6 | 1 | 924 | JEFF SMITH | 2:18.305 | - | - | 7 |
| 2 | 74 | KEITH CLARK | 2:19.918 | 1.613 | 1.613 | 8 | |
| 3 | 707 | KERRY BROWN | 2:23.141 | 4.836 | 3.223 | 7 | |
| GTC5 | 1 | 44 | JEAN AUDET | 2:26.678 | - | - | 6 |
Pole Position